Time;durP1;ratioP1;P1;durP2;ratioP2;P2;SDS_P1;SDS_P2;PMS_P1;PMS_P2;Temp;Humidity;BMP_temperature;BMP_pressure;BME280_temperature;BME280_humidity;BME280_pressure;Samples;Min_cycle;Max_cycle;Signal;HPM_P1;HPM_P2
2023/07/29 00:01:01;;;;;;;5.07;2.05;;;;;;;25.10;50.04;99140.59;4431724;32;35049;-76
2023/07/29 00:03:32;;;;;;;3.40;1.67;;;;;;;25.14;49.83;99138.28;4450630;32;34293;-77
2023/07/29 00:06:00;;;;;;;6.45;2.80;;;;;;;25.12;49.89;99136.78;4435835;32;34465;-77
2023/07/29 00:08:27;;;;;;;4.12;1.67;;;;;;;25.01;50.06;99130.13;4432359;32;34168;-76
2023/07/29 00:10:55;;;;;;;6.55;2.20;;;;;;;24.91;50.05;99129.78;4432915;32;33890;-77
2023/07/29 00:13:23;;;;;;;6.28;2.10;;;;;;;24.75;50.41;99134.75;4434608;32;34386;-75
2023/07/29 00:15:54;;;;;;;4.95;2.25;;;;;;;24.74;50.46;99124.00;4438743;32;33872;-70
2023/07/29 00:18:23;;;;;;;5.10;1.98;;;;;;;24.80;50.42;99131.34;4425411;32;35320;-70
2023/07/29 00:20:50;;;;;;;5.55;1.85;;;;;;;24.77;50.64;99129.88;4440168;32;35318;-70
2023/07/29 00:23:19;;;;;;;5.40;2.17;;;;;;;24.74;50.77;99124.84;4431857;32;34453;-70
2023/07/29 00:25:46;;;;;;;6.12;2.00;;;;;;;24.59;51.18;99124.31;4434619;32;33990;-71
2023/07/29 00:28:14;;;;;;;5.93;2.53;;;;;;;24.54;51.20;99116.78;4431116;32;33977;-71
2023/07/29 00:30:42;;;;;;;5.32;2.35;;;;;;;24.54;51.15;99119.53;4433677;32;34162;-70
2023/07/29 00:33:10;;;;;;;4.25;1.83;;;;;;;24.57;51.01;99115.50;4434364;32;33379;-70
2023/07/29 00:35:38;;;;;;;4.62;2.05;;;;;;;24.43;51.14;99120.25;4437748;32;33815;-70
2023/07/29 00:38:05;;;;;;;4.32;2.28;;;;;;;24.48;50.89;99119.56;4438002;32;33994;-70
2023/07/29 00:40:35;;;;;;;4.07;2.15;;;;;;;24.45;50.83;99126.31;4432723;32;34975;-75
2023/07/29 00:43:03;;;;;;;5.00;2.10;;;;;;;24.40;50.93;99126.13;4434744;32;34571;-75
2023/07/29 00:45:32;;;;;;;3.30;1.73;;;;;;;24.32;50.96;99126.34;4432352;32;33685;-75
2023/07/29 00:48:01;;;;;;;3.20;1.77;;;;;;;24.39;50.59;99125.25;4431911;32;34904;-75
2023/07/29 00:50:30;;;;;;;3.53;1.87;;;;;;;24.34;50.56;99122.34;4421771;32;34000;-75
2023/07/29 00:53:00;;;;;;;3.67;1.92;;;;;;;24.35;50.46;99117.72;4421424;32;33653;-76
2023/07/29 00:55:28;;;;;;;5.60;2.35;;;;;;;24.33;50.48;99115.22;4431613;32;33691;-74
2023/07/29 00:57:56;;;;;;;4.62;1.50;;;;;;;24.32;50.55;99121.72;4441858;32;33742;-74
2023/07/29 01:00:24;;;;;;;3.10;1.62;;;;;;;24.33;50.44;99111.63;4422364;32;33800;-71
2023/07/29 01:02:54;;;;;;;6.50;1.45;;;;;;;24.29;50.51;99110.38;4432752;32;34633;-70
2023/07/29 01:05:23;;;;;;;3.70;1.85;;;;;;;24.34;50.35;99110.56;4432893;32;33070;-70
2023/07/29 01:07:56;;;;;;;5.20;2.83;;;;;;;24.30;50.54;99112.91;4419696;32;33703;-70
2023/07/29 01:10:23;;;;;;;4.25;2.17;;;;;;;24.25;50.77;99106.41;4435730;32;33955;-70
2023/07/29 01:13:00;;;;;;;8.85;1.65;;;;;;;24.23;50.86;99116.72;4433725;32;33289;-70
2023/07/29 01:15:52;;;;;;;4.57;1.65;;;;;;;24.27;50.71;99105.16;4421270;32;34665;-70
2023/07/29 01:18:30;;;;;;;4.53;2.30;;;;;;;24.25;50.80;99110.00;4353339;32;33695;-68
2023/07/29 01:21:00;;;;;;;4.45;2.30;;;;;;;24.15;50.93;99104.16;4355328;32;33481;-69
2023/07/29 01:23:33;;;;;;;4.15;2.20;;;;;;;24.18;50.81;99111.91;4344023;32;33193;-69
2023/07/29 01:26:01;;;;;;;4.28;1.92;;;;;;;24.08;50.86;99104.19;4366634;32;34061;-69
2023/07/29 01:28:30;;;;;;;3.72;1.62;;;;;;;24.07;50.86;99104.38;4363976;32;35495;-69
2023/07/29 01:31:25;;;;;;;4.53;2.12;;;;;;;24.05;50.89;99106.53;4356535;32;33811;-69
2023/07/29 01:34:11;;;;;;;4.18;1.83;;;;;;;23.82;51.34;99117.94;4343305;32;35194;-69
2023/07/29 01:36:41;;;;;;;3.50;1.83;;;;;;;23.72;51.76;99115.66;4344349;32;33632;-69
2023/07/29 01:39:12;;;;;;;3.62;1.85;;;;;;;23.69;51.95;99116.09;4369659;32;34183;-69
2023/07/29 01:41:41;;;;;;;5.22;2.33;;;;;;;23.65;52.06;99112.09;4373889;32;34172;-69
2023/07/29 01:44:09;;;;;;;4.12;2.35;;;;;;;23.62;52.27;99118.81;4371984;32;33425;-69
2023/07/29 01:46:37;;;;;;;5.12;2.10;;;;;;;23.36;52.95;99124.34;4373699;32;33432;-69
2023/07/29 01:49:07;;;;;;;3.70;1.98;;;;;;;23.39;52.90;99126.66;4392156;32;34724;-68
2023/07/29 01:51:34;;;;;;;7.75;2.37;;;;;;;23.49;52.66;99122.41;4434935;32;35576;-68
2023/07/29 01:54:03;;;;;;;2.83;1.87;;;;;;;23.49;52.68;99119.69;4436240;32;33256;-68
2023/07/29 01:56:30;;;;;;;2.83;1.67;;;;;;;23.30;53.26;99117.00;4435644;32;34326;-68
2023/07/29 01:58:58;;;;;;;3.97;2.00;;;;;;;23.24;53.38;99121.41;4434532;32;33880;-68
2023/07/29 02:01:26;;;;;;;3.78;2.08;;;;;;;23.19;53.55;99122.06;4430151;32;33941;-67
2023/07/29 02:03:55;;;;;;;4.55;2.08;;;;;;;23.12;53.67;99117.66;4435645;32;33467;-68
2023/07/29 02:06:24;;;;;;;3.87;2.17;;;;;;;23.15;53.44;99114.50;4436446;32;34903;-71
2023/07/29 02:08:52;;;;;;;4.20;2.00;;;;;;;23.13;53.27;99114.72;4419854;32;33680;-70
2023/07/29 02:11:27;;;;;;;2.83;1.50;;;;;;;23.16;52.98;99116.19;4437222;32;34028;-71
2023/07/29 02:13:55;;;;;;;4.53;1.83;;;;;;;23.14;52.90;99113.66;4435119;32;33385;-71
2023/07/29 02:16:23;;;;;;;5.05;2.70;;;;;;;23.13;52.75;99109.25;4438086;32;34974;-71
2023/07/29 02:18:51;;;;;;;5.85;2.90;;;;;;;23.08;52.79;99103.59;4439332;32;33860;-68
2023/07/29 02:21:22;;;;;;;4.00;2.03;;;;;;;23.07;52.97;99114.72;4443328;32;35848;-68
2023/07/29 02:23:50;;;;;;;4.40;2.40;;;;;;;23.19;52.84;99113.88;4420644;32;33855;-70
2023/07/29 02:26:19;;;;;;;3.70;1.45;;;;;;;23.10;52.97;99111.56;4428162;32;33682;-69
2023/07/29 02:28:46;;;;;;;5.15;1.80;;;;;;;23.19;52.74;99119.31;4431613;32;35566;-70
2023/07/29 02:31:25;;;;;;;6.05;1.92;;;;;;;23.24;52.62;99121.41;4423611;32;33807;-70
2023/07/29 02:33:53;;;;;;;4.78;1.98;;;;;;;23.25;52.58;99118.47;4443963;32;33394;-69
2023/07/29 02:36:21;;;;;;;4.15;1.80;;;;;;;23.27;52.48;99118.25;4437216;32;34850;-72
2023/07/29 02:38:48;;;;;;;3.25;1.58;;;;;;;23.28;52.35;99119.13;4435364;32;35680;-71
2023/07/29 02:41:16;;;;;;;2.37;1.17;;;;;;;23.20;52.60;99111.97;4432652;32;35297;-70
2023/07/29 02:43:48;;;;;;;2.90;1.67;;;;;;;23.16;52.69;99113.44;4436906;32;33301;-70
2023/07/29 02:46:16;;;;;;;4.35;2.10;;;;;;;22.91;53.41;99122.25;4432595;32;34684;-70
2023/07/29 02:48:44;;;;;;;2.95;1.60;;;;;;;22.79;53.60;99126.63;4429964;32;33957;-70
2023/07/29 02:51:12;;;;;;;3.47;1.80;;;;;;;22.96;53.12;99127.13;4438639;32;34753;-70
2023/07/29 02:53:39;;;;;;;4.37;2.00;;;;;;;22.91;53.23;99130.41;4437496;32;33391;-70
2023/07/29 02:56:09;;;;;;;4.28;1.95;;;;;;;22.96;53.12;99124.37;4435289;32;33985;-72
2023/07/29 02:58:37;;;;;;;4.20;2.03;;;;;;;22.94;53.09;99124.59;4434925;32;34773;-73
2023/07/29 03:01:06;;;;;;;5.05;1.65;;;;;;;22.92;53.09;99126.66;4436928;32;33833;-72
2023/07/29 03:03:34;;;;;;;3.97;2.12;;;;;;;22.97;52.93;99123.31;4431021;32;33417;-72
2023/07/29 03:06:05;;;;;;;3.40;1.87;;;;;;;22.92;53.04;99139.44;4431981;32;34723;-72
2023/07/29 03:08:33;;;;;;;2.97;1.35;;;;;;;22.88;53.10;99130.84;4437026;32;34030;-73
2023/07/29 03:11:12;;;;;;;4.75;2.03;;;;;;;22.82;53.22;99133.56;4433712;32;34145;-70
2023/07/29 03:13:41;;;;;;;4.87;2.28;;;;;;;22.79;53.29;99135.69;4435267;32;33363;-72
2023/07/29 03:16:10;;;;;;;3.60;1.95;;;;;;;22.85;53.07;99139.44;4435047;32;33488;-72
2023/07/29 03:18:39;;;;;;;3.60;1.60;;;;;;;22.82;53.13;99134.41;4437651;32;33573;-72
2023/07/29 03:21:07;;;;;;;3.05;1.65;;;;;;;22.68;53.44;99136.28;4436136;32;33880;-69
2023/07/29 03:23:36;;;;;;;3.28;1.50;;;;;;;22.71;53.39;99137.75;4432612;32;33419;-69
2023/07/29 03:26:09;;;;;;;4.78;1.62;;;;;;;22.61;53.66;99138.16;4433659;32;34422;-70
2023/07/29 03:28:40;;;;;;;4.50;2.10;;;;;;;22.67;53.50;99133.78;4443971;32;33780;-71
2023/07/29 03:31:08;;;;;;;4.15;2.12;;;;;;;22.58;53.74;99132.28;4438954;32;34060;-70
2023/07/29 03:33:36;;;;;;;7.03;2.85;;;;;;;22.56;53.83;99135.22;4435440;32;34321;-71
2023/07/29 03:36:05;;;;;;;6.62;2.72;;;;;;;22.49;53.95;99134.38;4432843;32;34760;-71
2023/07/29 03:38:39;;;;;;;4.75;2.08;;;;;;;22.62;53.59;99126.19;4434504;32;35219;-70
2023/07/29 03:41:08;;;;;;;3.28;1.85;;;;;;;22.65;53.55;99133.97;4421287;32;34746;-70
2023/07/29 03:43:36;;;;;;;5.80;2.12;;;;;;;22.69;53.47;99131.66;4434883;32;33374;-70
2023/07/29 03:46:05;;;;;;;4.45;2.25;;;;;;;22.70;53.45;99130.63;4438533;32;33612;-71
2023/07/29 03:48:36;;;;;;;3.40;1.67;;;;;;;22.75;53.42;99139.03;4435809;32;35737;-69
2023/07/29 03:51:03;;;;;;;3.10;1.62;;;;;;;22.88;53.22;99143.66;4421960;32;35789;-69
2023/07/29 03:53:31;;;;;;;5.62;2.10;;;;;;;22.89;53.21;99146.19;4436852;32;34443;-69
2023/07/29 03:55:59;;;;;;;5.57;2.33;;;;;;;22.91;53.10;99148.69;4435368;32;35621;-70
2023/07/29 03:58:26;;;;;;;3.58;2.22;;;;;;;22.85;53.33;99146.78;4438928;32;35125;-70
2023/07/29 04:00:54;;;;;;;4.37;2.22;;;;;;;22.90;53.35;99141.56;4444352;32;35180;-70
2023/07/29 04:03:22;;;;;;;3.78;1.90;;;;;;;22.79;53.66;99138.41;4433760;32;32375;-70
2023/07/29 04:05:51;;;;;;;6.70;2.83;;;;;;;22.81;53.64;99137.34;4434437;32;34674;-72
2023/07/29 04:08:19;;;;;;;5.18;2.30;;;;;;;22.82;53.72;99128.94;4423422;32;33656;-72
2023/07/29 04:10:47;;;;;;;5.95;3.08;;;;;;;22.88;53.66;99133.56;4441370;32;34906;-73
2023/07/29 04:13:15;;;;;;;5.43;2.37;;;;;;;22.95;53.64;99136.31;4421331;32;33714;-73
2023/07/29 04:15:43;;;;;;;3.78;2.15;;;;;;;23.14;53.45;99142.84;4432262;32;33801;-72
2023/07/29 04:18:11;;;;;;;4.85;2.55;;;;;;;23.22;53.28;99143.47;4434794;32;35540;-71
2023/07/29 04:20:38;;;;;;;3.33;1.95;;;;;;;23.32;52.77;99145.78;4435216;32;33904;-72
2023/07/29 04:23:06;;;;;;;4.95;2.65;;;;;;;23.29;52.96;99146.19;4434351;32;34337;-71
2023/07/29 04:25:33;;;;;;;3.33;2.03;;;;;;;23.28;52.94;99141.81;4434295;32;33120;-71
2023/07/29 04:28:03;;;;;;;4.50;2.53;;;;;;;23.34;52.93;99145.56;4435163;32;33862;-72
2023/07/29 04:30:30;;;;;;;4.40;2.30;;;;;;;23.24;53.29;99144.12;4425123;32;34970;-71
2023/07/29 04:32:58;;;;;;;4.32;1.73;;;;;;;23.35;53.14;99147.25;4433098;32;33547;-71
2023/07/29 04:35:26;;;;;;;3.95;2.05;;;;;;;23.35;52.88;99141.78;4434812;32;33435;-71
2023/07/29 04:37:53;;;;;;;4.30;2.33;;;;;;;23.28;53.21;99130.88;4448027;32;35055;-71
2023/07/29 04:40:22;;;;;;;5.47;2.33;;;;;;;23.22;53.33;99137.19;4438179;32;35249;-72
2023/07/29 04:42:51;;;;;;;5.93;2.72;;;;;;;23.46;52.98;99130.19;4438608;32;33417;-71
2023/07/29 04:45:18;;;;;;;6.00;3.15;;;;;;;23.49;53.15;99136.06;4435899;32;33739;-72
2023/07/29 04:47:46;;;;;;;5.12;2.50;;;;;;;23.67;52.91;99131.84;4434286;32;35853;-72
2023/07/29 04:50:14;;;;;;;5.55;2.75;;;;;;;23.70;53.20;99136.91;4438210;32;35103;-72
2023/07/29 04:52:41;;;;;;;5.75;3.10;;;;;;;23.86;52.71;99135.62;4438676;32;33450;-72
2023/07/29 04:55:09;;;;;;;3.90;2.10;;;;;;;23.98;52.56;99124.81;4432105;32;35022;-72
2023/07/29 04:57:37;;;;;;;6.12;2.53;;;;;;;24.20;52.10;99130.81;4434310;32;35094;-73
2023/07/29 05:00:05;;;;;;;5.30;2.75;;;;;;;24.42;51.32;99128.66;4432010;32;35669;-71
2023/07/29 05:02:33;;;;;;;5.95;2.58;;;;;;;24.56;50.76;99130.25;4415713;32;33143;-72
2023/07/29 05:05:01;;;;;;;4.47;2.17;;;;;;;24.67;50.29;99134.19;4433738;32;34533;-72
2023/07/29 05:07:28;;;;;;;4.82;2.35;;;;;;;24.98;49.84;99139.63;4434055;32;33806;-71
2023/07/29 05:09:56;;;;;;;4.75;2.65;;;;;;;25.21;49.33;99149.16;4436199;32;33867;-71
2023/07/29 05:12:24;;;;;;;7.03;2.20;;;;;;;25.21;49.46;99152.72;4438702;32;34637;-72
2023/07/29 05:14:51;;;;;;;5.45;3.10;;;;;;;25.30;49.77;99153.28;4435514;32;34117;-71
2023/07/29 05:17:19;;;;;;;8.20;2.37;;;;;;;25.28;49.81;99156.25;4429681;32;34118;-71
2023/07/29 05:19:47;;;;;;;4.25;2.58;;;;;;;25.38;49.60;99163.13;4441465;32;33632;-71
2023/07/29 05:22:14;;;;;;;4.40;1.85;;;;;;;25.40;49.96;99164.56;4437343;32;33914;-71
2023/07/29 05:24:42;;;;;;;3.90;1.98;;;;;;;25.49;49.38;99162.37;4435575;32;33685;-72
2023/07/29 05:27:10;;;;;;;4.00;2.12;;;;;;;25.62;49.08;99161.41;4436399;32;34347;-71
2023/07/29 05:29:37;;;;;;;5.43;3.03;;;;;;;25.69;49.48;99156.69;4434749;32;34031;-71
2023/07/29 05:32:05;;;;;;;5.25;2.42;;;;;;;25.60;49.33;99167.12;4434289;32;33611;-70
2023/07/29 05:34:33;;;;;;;4.87;2.25;;;;;;;25.81;49.39;99170.50;4431879;32;34624;-70
2023/07/29 05:37:01;;;;;;;9.85;2.75;;;;;;;25.71;49.37;99174.56;4440432;32;33994;-71
2023/07/29 05:39:29;;;;;;;5.03;2.42;;;;;;;25.89;48.75;99175.69;4436025;32;35002;-71
2023/07/29 05:41:57;;;;;;;3.35;1.95;;;;;;;25.96;48.62;99181.94;4434245;32;33351;-71
2023/07/29 05:44:24;;;;;;;4.55;2.28;;;;;;;26.02;48.63;99187.34;4422434;32;33673;-69
2023/07/29 05:46:52;;;;;;;5.78;2.05;;;;;;;26.02;48.65;99189.25;4446010;32;33500;-71
2023/07/29 05:49:20;;;;;;;4.60;2.60;;;;;;;26.11;48.65;99187.88;4434634;32;33402;-71
2023/07/29 05:51:48;;;;;;;6.75;2.72;;;;;;;26.18;48.64;99196.88;4431085;32;33384;-72
2023/07/29 05:54:18;;;;;;;5.53;2.62;;;;;;;26.19;48.66;99187.56;4433257;32;34101;-73
2023/07/29 05:56:45;;;;;;;4.57;2.50;;;;;;;26.16;49.02;99187.19;4403855;32;33938;-73
2023/07/29 05:59:13;;;;;;;4.18;2.33;;;;;;;26.12;48.75;99189.56;4402830;32;34955;-72
2023/07/29 06:01:41;;;;;;;5.60;2.78;;;;;;;26.01;48.88;99198.56;4399047;32;33491;-72
2023/07/29 06:04:09;;;;;;;5.43;3.15;;;;;;;26.02;48.78;99197.47;4401262;32;33579;-72
2023/07/29 06:06:36;;;;;;;5.40;2.42;;;;;;;26.00;48.77;99208.69;4398077;32;33848;-67
2023/07/29 06:09:05;;;;;;;6.53;2.60;;;;;;;25.78;49.52;99213.75;4399319;32;33907;-69
2023/07/29 06:11:33;;;;;;;4.82;2.33;;;;;;;25.68;49.67;99202.47;4404103;32;32418;-69
2023/07/29 06:14:01;;;;;;;4.12;2.28;;;;;;;25.50;50.12;99208.72;4395711;32;33691;-69
2023/07/29 06:16:28;;;;;;;8.45;2.65;;;;;;;25.81;49.21;99217.97;4398062;32;34825;-68
2023/07/29 06:18:56;;;;;;;4.55;2.37;;;;;;;26.04;48.87;99220.03;4402858;32;35209;-69
2023/07/29 06:21:24;;;;;;;5.70;2.37;;;;;;;25.95;49.25;99211.25;4402223;32;34412;-69
2023/07/29 06:23:52;;;;;;;4.72;2.72;;;;;;;26.06;48.68;99217.88;4362944;32;34683;-73
2023/07/29 06:26:20;;;;;;;9.07;3.05;;;;;;;25.64;50.77;99220.41;4357233;32;33639;-73
2023/07/29 06:28:48;;;;;;;4.90;2.58;;;;;;;25.79;50.10;99220.06;4398610;32;33855;-73
2023/07/29 06:31:15;;;;;;;7.45;2.60;;;;;;;25.82;50.23;99224.28;4401202;32;34523;-73
2023/07/29 06:33:43;;;;;;;4.82;2.58;;;;;;;25.59;51.13;99233.94;4401968;32;34557;-75
2023/07/29 06:36:11;;;;;;;5.45;2.83;;;;;;;26.09;49.97;99228.41;4405663;32;33842;-74
2023/07/29 06:38:39;;;;;;;5.03;2.70;;;;;;;26.01;49.66;99224.06;4403007;32;34961;-73
2023/07/29 06:41:07;;;;;;;4.93;2.62;;;;;;;26.12;49.15;99221.63;4411492;32;34181;-73
2023/07/29 06:43:34;;;;;;;5.18;2.55;;;;;;;26.10;49.03;99227.34;4403835;32;34679;-73
2023/07/29 06:46:02;;;;;;;5.12;1.98;;;;;;;26.31;48.72;99228.78;4396751;32;34029;-72
2023/07/29 06:48:30;;;;;;;5.80;2.95;;;;;;;26.10;48.71;99223.75;4405242;32;33950;-72
2023/07/29 06:51:00;;;;;;;5.55;2.65;;;;;;;26.41;48.37;99228.25;4401102;32;34267;-72
2023/07/29 06:53:28;;;;;;;4.35;2.28;;;;;;;25.83;48.76;99226.78;4398865;32;33551;-72
2023/07/29 06:55:56;;;;;;;5.43;2.45;;;;;;;26.05;48.91;99221.72;4421391;32;34604;-73
2023/07/29 06:58:23;;;;;;;5.50;2.83;;;;;;;26.33;49.23;99223.09;4433422;32;35123;-72
2023/07/29 07:00:51;;;;;;;5.03;2.70;;;;;;;26.71;47.20;99226.41;4433600;32;34318;-72
2023/07/29 07:03:20;;;;;;;5.05;2.83;;;;;;;26.29;48.64;99217.19;4439509;32;33607;-72
2023/07/29 07:05:47;;;;;;;4.78;2.12;;;;;;;26.38;48.03;99215.81;4429351;32;33855;-75
2023/07/29 07:08:15;;;;;;;4.37;2.40;;;;;;;26.66;47.70;99218.03;4434018;32;34213;-72
2023/07/29 07:10:43;;;;;;;4.35;2.42;;;;;;;26.95;47.32;99218.25;4436393;32;33709;-72
2023/07/29 07:13:10;;;;;;;4.20;2.35;;;;;;;26.89;46.72;99210.94;4434359;32;33721;-72
2023/07/29 07:15:38;;;;;;;4.80;2.62;;;;;;;26.90;47.21;99212.59;4435587;32;34072;-72
2023/07/29 07:18:06;;;;;;;6.55;2.92;;;;;;;26.80;48.59;99220.56;4433786;32;34117;-72
2023/07/29 07:20:34;;;;;;;5.10;2.72;;;;;;;27.00;48.23;99217.53;4426433;32;33632;-71
2023/07/29 07:23:02;;;;;;;5.32;3.05;;;;;;;26.86;48.44;99220.47;4426008;32;33362;-70
2023/07/29 07:25:30;;;;;;;4.93;2.40;;;;;;;26.97;48.60;99218.00;4421407;32;33617;-70
2023/07/29 07:27:58;;;;;;;5.78;2.80;;;;;;;26.94;47.86;99219.31;4419862;32;34345;-71
2023/07/29 07:30:26;;;;;;;5.68;2.80;;;;;;;27.10;48.35;99217.81;4429233;32;33547;-71
2023/07/29 07:32:53;;;;;;;5.65;2.47;;;;;;;27.23;46.46;99222.31;4431967;32;33839;-69
2023/07/29 07:35:21;;;;;;;5.18;2.47;;;;;;;27.09;46.16;99224.37;4430370;32;34608;-69
2023/07/29 07:37:49;;;;;;;6.60;2.97;;;;;;;27.05;46.11;99221.25;4423023;32;34569;-71
2023/07/29 07:40:16;;;;;;;5.32;2.62;;;;;;;26.91;46.44;99217.06;4430357;32;34419;-68
2023/07/29 07:42:44;;;;;;;6.55;2.70;;;;;;;27.14;45.93;99216.31;4432320;32;33512;-67
2023/07/29 07:45:11;;;;;;;4.82;2.42;;;;;;;27.21;45.92;99217.03;4428131;32;34092;-66
2023/07/29 07:47:39;;;;;;;4.10;2.22;;;;;;;27.21;45.30;99207.94;4433542;32;35033;-67
2023/07/29 07:50:07;;;;;;;5.40;2.45;;;;;;;27.21;45.60;99216.19;4440424;32;32888;-67
2023/07/29 07:52:41;;;;;;;6.43;2.65;;;;;;;27.01;46.90;99209.06;4519516;31;164890;-68
2023/07/29 07:55:09;;;;;;;9.02;2.28;;;;;;;27.03;46.54;99200.59;4489546;31;33172;-68
2023/07/29 07:57:37;;;;;;;5.47;2.30;;;;;;;27.46;46.48;99208.59;4487566;31;33376;-66
2023/07/29 08:00:05;;;;;;;4.68;2.55;;;;;;;27.43;46.26;99205.47;4489096;31;33002;-67
2023/07/29 08:02:39;;;;;;;5.05;2.10;;;;;;;27.49;45.87;99199.03;4485385;31;33270;-66
2023/07/29 08:05:07;;;;;;;4.82;2.50;;;;;;;27.58;45.63;99195.69;4486880;31;33012;-67
2023/07/29 08:07:34;;;;;;;6.25;2.58;;;;;;;27.75;46.52;99200.47;4492739;31;34972;-68
2023/07/29 08:10:02;;;;;;;5.70;2.62;;;;;;;27.51;45.70;99199.63;4486984;31;33757;-68
2023/07/29 08:12:31;;;;;;;4.93;2.85;;;;;;;27.79;45.45;99193.44;4487651;31;33347;-68
2023/07/29 08:14:58;;;;;;;3.60;1.90;;;;;;;27.80;45.78;99195.09;4488476;31;33212;-69
2023/07/29 08:17:26;;;;;;;4.72;2.62;;;;;;;28.05;44.52;99184.66;4487009;31;33732;-68
2023/07/29 08:19:53;;;;;;;3.72;1.98;;;;;;;27.80;45.60;99193.22;4486247;31;34895;-68
2023/07/29 08:22:21;;;;;;;3.20;1.58;;;;;;;27.89;44.04;99184.59;4482549;31;33551;-68
2023/07/29 08:24:49;;;;;;;4.45;2.33;;;;;;;27.89;44.66;99190.91;4486413;31;34108;-68
2023/07/29 08:27:17;;;;;;;3.62;2.00;;;;;;;28.36;44.27;99190.00;4489574;31;34000;-69
2023/07/29 08:29:44;;;;;;;3.37;1.60;;;;;;;28.10;44.66;99190.28;4492977;31;35238;-66
2023/07/29 08:32:12;;;;;;;5.90;2.87;;;;;;;28.22;43.95;99190.28;4500793;31;33355;-69
2023/07/29 08:34:39;;;;;;;5.47;2.28;;;;;;;28.84;42.36;99184.06;4493136;31;32943;-69
2023/07/29 08:37:07;;;;;;;3.83;1.87;;;;;;;28.76;42.22;99182.56;4485791;31;35034;-68
2023/07/29 08:39:35;;;;;;;3.67;1.92;;;;;;;28.31;43.55;99185.19;4491949;31;33913;-68
2023/07/29 08:42:11;;;;;;;2.90;1.73;;;;;;;28.15;43.12;99185.97;4493837;32;33834;-69
2023/07/29 08:44:41;;;;;;;2.67;1.60;;;;;;;28.10;41.70;99189.47;4499245;31;33140;-68
2023/07/29 08:47:09;;;;;;;3.78;1.83;;;;;;;28.48;41.64;99188.06;4493449;32;34895;-68
2023/07/29 08:49:38;;;;;;;3.78;1.73;;;;;;;28.30;41.27;99181.62;4494491;32;33768;-68
2023/07/29 08:52:07;;;;;;;3.75;1.70;;;;;;;28.36;40.07;99181.75;4477759;31;33721;-68
2023/07/29 08:54:35;;;;;;;3.62;1.80;;;;;;;28.88;39.19;99185.25;4488544;32;33103;-68
2023/07/29 08:57:03;;;;;;;4.55;2.05;;;;;;;28.75;40.11;99180.88;4488700;32;34137;-68
2023/07/29 08:59:30;;;;;;;4.10;2.10;;;;;;;28.60;40.26;99177.00;4500297;31;35058;-68
2023/07/29 09:01:59;;;;;;;4.30;1.83;;;;;;;28.66;41.04;99182.34;4490027;31;34911;-68
2023/07/29 09:04:28;;;;;;;3.83;2.08;;;;;;;29.24;40.25;99180.38;4487872;31;34482;-68
2023/07/29 09:06:56;;;;;;;4.20;1.80;;;;;;;29.16;39.82;99172.53;4500423;31;33478;-69
2023/07/29 09:09:25;;;;;;;3.72;1.85;;;;;;;29.44;38.39;99175.22;4499980;31;33628;-68
2023/07/29 09:11:53;;;;;;;5.10;2.00;;;;;;;29.31;40.14;99172.81;4499844;31;33488;-68
2023/07/29 09:14:21;;;;;;;3.83;2.25;;;;;;;29.39;39.18;99172.38;4485750;31;34166;-68
2023/07/29 09:16:49;;;;;;;4.05;1.85;;;;;;;28.85;41.29;99177.47;4480319;31;32372;-68
2023/07/29 09:19:16;;;;;;;4.03;1.95;;;;;;;29.15;39.91;99173.59;4484097;32;34449;-68
2023/07/29 09:21:46;;;;;;;4.70;2.20;;;;;;;28.81;40.40;99169.97;4484313;32;33810;-68
2023/07/29 09:24:17;;;;;;;3.75;1.80;;;;;;;29.61;38.66;99161.44;4495985;31;32981;-68
2023/07/29 09:26:53;;;;;;;3.10;1.90;;;;;;;29.41;38.70;99161.94;4487529;31;33628;-68
2023/07/29 09:29:23;;;;;;;4.20;2.15;;;;;;;29.53;39.43;99161.81;4482159;32;33950;-69
2023/07/29 09:31:50;;;;;;;3.75;2.12;;;;;;;30.08;38.25;99163.75;4480298;31;33790;-69
2023/07/29 09:34:18;;;;;;;4.20;1.95;;;;;;;30.08;37.43;99154.59;4476291;31;34106;-68
2023/07/29 09:36:46;;;;;;;4.00;2.15;;;;;;;29.99;37.78;99150.66;4485609;31;33549;-67
2023/07/29 09:39:13;;;;;;;4.62;1.98;;;;;;;29.86;37.89;99154.63;4486067;31;34995;-67
2023/07/29 09:41:41;;;;;;;4.03;1.98;;;;;;;30.29;37.09;99153.81;4472193;31;34543;-67
2023/07/29 09:44:11;;;;;;;3.85;1.75;;;;;;;30.15;37.82;99149.75;4473094;31;33460;-67
2023/07/29 09:46:38;;;;;;;4.93;2.00;;;;;;;29.90;37.40;99153.00;4470500;31;34784;-68
2023/07/29 09:49:07;;;;;;;3.65;1.90;;;;;;;30.46;37.16;99145.44;4485758;31;35559;-68
2023/07/29 09:51:39;;;;;;;4.00;1.75;;;;;;;30.56;37.50;99141.94;4485148;31;33576;-68
2023/07/29 09:54:07;;;;;;;3.25;2.00;;;;;;;30.42;35.87;99149.81;4483973;32;32943;-67
2023/07/29 09:56:39;;;;;;;3.80;1.80;;;;;;;30.96;35.61;99144.31;4479494;31;33993;-68
2023/07/29 09:59:07;;;;;;;3.50;1.83;;;;;;;30.12;37.18;99139.22;4484486;31;33817;-68
2023/07/29 10:01:35;;;;;;;3.25;1.70;;;;;;;30.69;36.42;99140.69;4475812;31;33478;-68
2023/07/29 10:04:05;;;;;;;4.07;1.80;;;;;;;30.92;36.44;99142.34;4480483;31;33052;-68
2023/07/29 10:06:34;;;;;;;3.25;1.65;;;;;;;31.13;34.87;99130.34;4485665;31;33571;-68
2023/07/29 10:09:04;;;;;;;3.72;1.62;;;;;;;31.61;33.32;99134.03;4468071;32;34734;-68
2023/07/29 10:11:32;;;;;;;2.95;1.50;;;;;;;31.67;34.04;99132.97;4474808;31;34801;-67
2023/07/29 10:14:00;;;;;;;3.75;1.60;;;;;;;31.63;33.38;99126.31;4466112;32;33222;-67
2023/07/29 10:16:41;;;;;;;3.67;1.60;;;;;;;32.13;32.98;99124.91;4478204;31;35287;-67
2023/07/29 10:19:09;;;;;;;3.15;1.77;;;;;;;31.66;33.80;99114.72;4480923;31;34311;-69
2023/07/29 10:21:39;;;;;;;4.40;1.98;;;;;;;32.33;33.32;99126.94;4485189;31;33987;-67
2023/07/29 10:24:10;;;;;;;3.53;1.70;;;;;;;31.82;33.82;99120.34;4489903;31;33208;-68
2023/07/29 10:26:39;;;;;;;3.92;1.83;;;;;;;32.48;32.69;99132.53;4492988;31;33568;-68
2023/07/29 10:29:10;;;;;;;3.30;1.77;;;;;;;32.66;31.91;99122.88;4470890;31;33773;-68
2023/07/29 10:31:40;;;;;;;4.37;1.80;;;;;;;32.68;32.61;99120.69;4482187;31;33696;-67
2023/07/29 10:34:08;;;;;;;2.65;1.30;;;;;;;33.01;31.10;99117.69;4493467;31;31938;-66
2023/07/29 10:36:36;;;;;;;3.03;1.52;;;;;;;32.73;32.07;99121.78;4487532;31;33864;-66
2023/07/29 10:39:07;;;;;;;5.12;1.85;;;;;;;31.94;33.39;99120.97;4460616;32;33921;-66
2023/07/29 10:41:56;;;;;;;4.32;1.70;;;;;;;32.32;33.49;99124.44;4485128;31;34294;-67
2023/07/29 10:44:39;;;;;;;3.12;1.75;;;;;;;31.78;34.16;99122.78;4466943;31;33151;-68
2023/07/29 10:47:13;;;;;;;3.58;1.70;;;;;;;31.32;35.28;99123.31;4479172;31;35121;-68
2023/07/29 10:49:41;;;;;;;3.95;2.00;;;;;;;31.40;34.48;99115.69;4483258;31;34031;-68
2023/07/29 10:52:14;;;;;;;3.00;1.58;;;;;;;30.84;34.62;99124.31;4475008;31;34108;-68
2023/07/29 10:54:47;;;;;;;2.67;1.37;;;;;;;31.55;34.23;99113.81;4491872;31;32899;-67
2023/07/29 10:57:35;;;;;;;3.62;1.58;;;;;;;31.60;33.28;99115.78;4489522;31;33345;-69
2023/07/29 11:00:04;;;;;;;3.67;1.70;;;;;;;31.82;33.40;99117.56;4467443;31;34034;-67
2023/07/29 11:02:35;;;;;;;2.55;1.20;;;;;;;31.48;33.76;99123.47;4479117;31;34607;-67
2023/07/29 11:05:17;;;;;;;3.03;1.50;;;;;;;31.49;33.98;99123.22;4477193;31;32615;-68
2023/07/29 11:07:47;;;;;;;14.77;9.20;;;;;;;31.39;33.44;99120.34;4485645;31;33400;-69
2023/07/29 11:10:15;;;;;;;4.97;2.20;;;;;;;31.93;32.95;99113.78;4474939;31;35300;-69
2023/07/29 11:12:46;;;;;;;3.22;1.52;;;;;;;31.96;32.79;99108.53;4475904;31;33281;-68
2023/07/29 11:15:25;;;;;;;3.72;1.60;;;;;;;32.29;31.53;99113.91;4482851;31;33269;-68
2023/07/29 11:17:58;;;;;;;3.10;1.60;;;;;;;32.55;31.57;99117.59;4477178;31;34078;-67
2023/07/29 11:20:27;;;;;;;3.62;1.80;;;;;;;32.10;32.89;99106.09;4488266;31;35092;-67
2023/07/29 11:22:56;;;;;;;7.15;1.70;;;;;;;32.81;32.32;99113.78;4457527;32;33477;-68
2023/07/29 11:25:25;;;;;;;4.55;1.50;;;;;;;32.69;31.92;99115.97;4473204;32;34008;-68
2023/07/29 11:27:54;;;;;;;3.22;1.80;;;;;;;33.17;30.98;99105.47;4462433;32;34603;-68
2023/07/29 11:30:23;;;;;;;2.97;1.40;;;;;;;32.82;32.49;99106.28;4464754;32;34762;-68
2023/07/29 11:32:50;;;;;;;4.97;1.70;;;;;;;33.01;31.53;99106.59;4450006;32;34276;-67
2023/07/29 11:35:18;;;;;;;3.72;1.98;;;;;;;32.94;31.61;99104.91;4451898;32;34179;-67
2023/07/29 11:37:49;;;;;;;3.17;1.70;;;;;;;32.21;32.66;99112.50;4469445;32;34565;-68
2023/07/29 11:40:21;;;;;;;3.45;1.52;;;;;;;32.47;32.37;99114.25;4463469;32;34989;-67
2023/07/29 11:42:50;;;;;;;5.65;1.60;;;;;;;32.40;32.51;99112.84;4461118;32;33492;-68